FCBB/BZV METAR and TAF weather

Enter ICAO airport designator
Station Type Date Time Source
FCBB METAR 2021/07/28 20:00 UTC NOAA

FCBB 282000Z 19003KT 7000 NSC 24/19 Q1014 NOSIG


Station Type Date Time Source
FCBB Decoded METAR 2021/07/28 20:00 UTC NOAA

Brazzaville / Maya-Maya, Congo, Republic of the (FCBB) 04-15S 015-15E 316M
Jul 28, 2021 - 04:00 PM EDT / 2021.07.28 2000 UTC
Wind: from the S (190 degrees) at 3 MPH (3 KT):0
Visibility: 4 mile(s):0
Temperature: 75 F (24 C)
Dew Point: 66 F (19 C)
Relative Humidity: 73%
Pressure (altimeter): 29.94 in. Hg (1014 hPa)
ob: FCBB 282000Z 19003KT 7000 NSC 24/19 Q1014 NOSIG
cycle: 20

Station Type Date Time Source
FCBB TAF 2021/07/28 18:13 UTC NOAA

TAF FCBB 281700Z 2818/2924 26004KT 7000 NSC PROB30 2906/2908 4000 BR

Example: see airport list